Terminal Aerodrome Forecast
Issued by NWS

Home | Current Version | Previous Version | Text Only | Print | Product List | Glossary On
Versions: 1 2 3 4 5 6 7 8 9 10 11 12
000
FTUS42 TJSJ 291700
TAFISX
TAF
TISX 291735Z 2918/3018 12010KT P6SM FEW020 SCT030
     FM292300 06008KT P6SM FEW025
     FM300900 07004KT P6SM SCT250
     FM301300 12010KT P6SM SCT250=

USA.gov is the U.S. government's official web portal to all federal, state and local government web resources and services.